LICR Airport Information

Runway Information
Runway 11 Length 5574 ft width 148 ft
Elevation 38 ft Threshold 0 ft Heading 113
Runway 29 Length 5574 ft Width 148 ft
Elevation 43 ft Threshold 0 ft Heading 293
Runway 15 Length 6549 ft width 148 ft
Elevation 84 ft Threshold 840 ft Heading 153
Runway 33 Length 6549 ft Width 148 ft
Elevation 34 ft Threshold 164 ft Heading 333
Airport Frequencies
Type APP Name APP Frequency 120.275 MHZ
Type TWR Name TWR Frequency 118.25 MHZ
Airport Navaids
Type VOR-DME Name Reggio Calabria Frequency 111000 KHZ
Type NDB Name Reggio Calabria Frequency 325 KHZ
Airport Weather Information & NOTAM
ADDS - METARS form results

(1052 UTC 21 April 2019)
Data provider http://aviationweather.gov/metar/data/
 
Forecast for: LICR (REGGIO CALABRIA , IT)
Text: TAF LICR 210500Z 2106/2206 19018G28KT CAVOK
Forecast period: 0600 UTC 21 April 2019 to 0600 UTC 22 April 2019
Forecast type: FROM: standard forecast or significant change
Winds: from the S (190 degrees) at 21 MPH (18 knots; 9.3 m/s)
gusting to 32 MPH (28 knots; 14.4 m/s)
Visibility: 6 or more miles 10+ km)
Ceiling: unknown
Clouds: missing
Weather: NSW  (no significant weather)